Time;durP1;ratioP1;P1;durP2;ratioP2;P2;SDS_P1;SDS_P2;PMS_P1;PMS_P2;Temp;Humidity;BMP_temperature;BMP_pressure;BME280_temperature;BME280_humidity;BME280_pressure;Samples;Min_cycle;Max_cycle;Signal;HPM_P1;HPM_P2
2022/09/25 00:01:05;;;;;;;3.83;2.05;;;;;;;;;;5038180;28;20205;-64
2022/09/25 00:03:33;;;;;;;2.78;1.92;;;;;;;;;;5037795;28;20222;-64
2022/09/25 00:06:02;;;;;;;3.10;2.20;;;;;;;;;;5037962;28;20202;-64
2022/09/25 00:08:30;;;;;;;2.33;2.13;;;;;;;;;;5057097;28;20529;-64
2022/09/25 00:10:58;;;;;;;2.55;2.08;;;;;;;;;;5049387;28;20237;-65
2022/09/25 00:13:25;;;;;;;2.78;2.35;;;;;;;;;;5037354;28;20657;-63
2022/09/25 00:15:54;;;;;;;3.20;2.17;;;;;;;;;;5038076;28;20292;-64
2022/09/25 00:21:04;;;;;;;2.60;2.40;;;;;;;;;;5037128;28;20473;-64
2022/09/25 00:23:33;;;;;;;2.38;2.17;;;;;;;;;;5038567;28;20712;-64
2022/09/25 00:26:01;;;;;;;3.58;2.05;;;;;;;;;;5037587;28;20215;-64
2022/09/25 00:28:29;;;;;;;3.30;2.08;;;;;;;;;;5037430;28;20296;-64
2022/09/25 00:30:57;;;;;;;2.70;2.50;;;;;;;;;;5037837;28;20205;-64
2022/09/25 00:33:25;;;;;;;2.53;2.33;;;;;;;;;;5036506;28;20197;-64
2022/09/25 00:35:52;;;;;;;2.38;2.17;;;;;;;;;;5037300;28;20336;-64
2022/09/25 00:38:20;;;;;;;2.55;2.35;;;;;;;;;;5037341;28;20300;-64
2022/09/25 00:40:49;;;;;;;2.60;2.40;;;;;;;;;;5037330;28;20598;-64
2022/09/25 00:43:17;;;;;;;2.20;2.00;;;;;;;;;;5037784;28;20320;-64
2022/09/25 00:45:44;;;;;;;2.60;2.40;;;;;;;;;;5037349;28;20304;-64
2022/09/25 00:48:14;;;;;;;2.50;2.30;;;;;;;;;;5037676;28;20206;-64
2022/09/25 00:50:45;;;;;;;2.63;2.42;;;;;;;;;;5037585;28;20289;-64
2022/09/25 00:53:14;;;;;;;2.53;2.25;;;;;;;;;;5037625;28;20335;-64
2022/09/25 00:55:43;;;;;;;2.38;2.17;;;;;;;;;;5037535;28;20224;-64
2022/09/25 00:58:13;;;;;;;2.42;2.30;;;;;;;;;;5037253;28;20213;-64
2022/09/25 01:00:40;;;;;;;2.53;2.28;;;;;;;;;;5036703;28;20209;-64
2022/09/25 01:03:08;;;;;;;2.50;2.30;;;;;;;;;;5036834;28;20225;-64
2022/09/25 01:05:37;;;;;;;2.75;2.55;;;;;;;;;;5036765;28;20644;-64
2022/09/25 01:08:05;;;;;;;2.88;2.60;;;;;;;;;;5037267;28;20285;-64
2022/09/25 01:10:34;;;;;;;2.45;2.30;;;;;;;;;;5036635;28;20205;-64
2022/09/25 01:13:01;;;;;;;2.33;2.20;;;;;;;;;;5037152;28;20201;-64
2022/09/25 01:15:37;;;;;;;3.00;2.80;;;;;;;;;;5037210;28;20304;-64
2022/09/25 01:18:07;;;;;;;2.50;2.30;;;;;;;;;;5037290;28;20211;-64
2022/09/25 01:20:41;;;;;;;2.60;2.40;;;;;;;;;;5036823;28;20210;-64
2022/09/25 01:23:18;;;;;;;2.85;2.65;;;;;;;;;;5037322;28;20620;-64
2022/09/25 01:25:53;;;;;;;2.60;2.38;;;;;;;;;;5037332;28;20579;-64
2022/09/25 01:28:26;;;;;;;2.60;2.40;;;;;;;;;;5036945;28;20212;-64
2022/09/25 01:30:59;;;;;;;2.30;2.20;;;;;;;;;;5036917;28;20205;-64
2022/09/25 01:33:32;;;;;;;2.60;2.40;;;;;;;;;;5037096;28;20237;-64
2022/09/25 01:36:02;;;;;;;2.42;2.33;;;;;;;;;;5036877;28;20328;-64
2022/09/25 01:38:34;;;;;;;2.55;2.45;;;;;;;;;;5036791;28;20244;-64
2022/09/25 01:41:06;;;;;;;2.42;2.30;;;;;;;;;;5036683;28;20552;-64
2022/09/25 01:43:35;;;;;;;2.17;2.08;;;;;;;;;;5037005;28;20229;-64
2022/09/25 01:46:10;;;;;;;2.53;2.33;;;;;;;;;;5040178;28;20225;-64
2022/09/25 01:48:39;;;;;;;2.50;2.35;;;;;;;;;;5040482;28;20490;-64
2022/09/25 01:51:09;;;;;;;2.70;2.50;;;;;;;;;;5041347;28;20304;-64
2022/09/25 01:53:39;;;;;;;2.60;2.40;;;;;;;;;;5040578;28;20491;-64
2022/09/25 01:56:09;;;;;;;2.67;2.47;;;;;;;;;;5040490;28;20478;-64
2022/09/25 08:24:36;;;;;;;3.13;2.92;;;;;;;;;;5035843;28;20654;-64
2022/09/25 08:27:04;;;;;;;3.35;3.03;;;;;;;;;;5036500;28;20229;-64
2022/09/25 08:29:31;;;;;;;3.40;3.10;;;;;;;;;;5037190;28;20190;-64
2022/09/25 08:31:59;;;;;;;3.20;2.90;;;;;;;;;;5036403;28;20256;-64
2022/09/25 08:34:26;;;;;;;3.08;2.88;;;;;;;;;;5037506;28;20237;-64
2022/09/25 08:36:54;;;;;;;3.70;3.05;;;;;;;;;;5036931;28;20198;-65
2022/09/25 08:39:21;;;;;;;3.30;3.00;;;;;;;;;;5037267;28;20299;-64
2022/09/25 08:41:51;;;;;;;3.45;3.17;;;;;;;;;;5037424;28;20564;-65
2022/09/25 08:44:26;;;;;;;3.33;2.67;;;;;;;;;;5037316;28;20334;-65
2022/09/25 08:49:45;;;;;;;5.90;2.83;;;;;;;;;;5036560;28;20471;-64
2022/09/25 08:52:16;;;;;;;4.57;2.60;;;;;;;;;;5036138;28;20244;-64
2022/09/25 08:54:43;;;;;;;5.18;3.28;;;;;;;;;;5034776;28;20213;-64
2022/09/25 08:57:16;;;;;;;3.10;2.80;;;;;;;;;;5035779;28;20289;-64
2022/09/25 08:59:46;;;;;;;3.90;2.83;;;;;;;;;;5036183;28;20299;-65
2022/09/25 09:02:15;;;;;;;4.35;2.80;;;;;;;;;;5037378;28;20491;-64
2022/09/25 09:04:43;;;;;;;4.22;2.72;;;;;;;;;;5035898;28;20331;-64
2022/09/25 09:07:18;;;;;;;3.47;2.88;;;;;;;;;;5035358;28;20202;-65
2022/09/25 09:09:48;;;;;;;4.35;3.25;;;;;;;;;;5035715;28;20246;-65
2022/09/25 09:12:19;;;;;;;3.30;3.10;;;;;;;;;;5035490;28;20288;-65
2022/09/25 09:14:49;;;;;;;3.20;2.90;;;;;;;;;;5035699;28;20236;-64
2022/09/25 09:17:18;;;;;;;3.50;3.20;;;;;;;;;;5035639;28;20234;-65
2022/09/25 09:19:51;;;;;;;3.60;3.30;;;;;;;;;;5035663;28;20613;-65
2022/09/25 09:22:21;;;;;;;3.97;3.38;;;;;;;;;;5035497;28;20513;-65
2022/09/25 09:24:56;;;;;;;3.63;3.00;;;;;;;;;;5035042;28;20229;-64
2022/09/25 09:27:29;;;;;;;3.00;2.80;;;;;;;;;;5034837;28;20255;-65
2022/09/25 09:30:02;;;;;;;3.85;3.50;;;;;;;;;;5035124;28;20209;-64
2022/09/25 09:32:34;;;;;;;3.72;3.30;;;;;;;;;;5034416;28;20730;-65
2022/09/25 09:35:08;;;;;;;3.40;3.10;;;;;;;;;;5035032;28;20201;-65
2022/09/25 09:37:44;;;;;;;3.40;3.10;;;;;;;;;;5034634;28;20271;-65
2022/09/25 09:40:32;;;;;;;3.60;3.30;;;;;;;;;;5034342;28;20308;-65
2022/09/25 09:43:05;;;;;;;4.90;3.38;;;;;;;;;;5034485;28;20244;-65
2022/09/25 09:45:38;;;;;;;3.42;3.13;;;;;;;;;;5034622;28;20336;-64
2022/09/25 09:48:10;;;;;;;3.92;3.13;;;;;;;;;;5034686;28;20201;-65
2022/09/25 09:50:43;;;;;;;3.70;3.20;;;;;;;;;;5034762;28;20305;-65
2022/09/25 09:53:12;;;;;;;3.25;2.90;;;;;;;;;;5035467;28;20202;-65
2022/09/25 09:55:43;;;;;;;4.10;3.13;;;;;;;;;;5035105;28;20673;-65
2022/09/25 09:58:15;;;;;;;3.53;3.22;;;;;;;;;;5034671;28;20240;-64
2022/09/25 10:00:43;;;;;;;4.25;2.95;;;;;;;;;;5034792;28;20206;-64
2022/09/25 10:03:13;;;;;;;3.72;2.97;;;;;;;;;;5034574;28;20209;-65
2022/09/25 10:05:43;;;;;;;4.28;3.20;;;;;;;;;;5037150;28;20661;-65
2022/09/25 10:08:11;;;;;;;5.00;3.17;;;;;;;;;;5037497;28;20229;-65
2022/09/25 10:10:39;;;;;;;3.42;3.13;;;;;;;;;;5038338;28;20252;-65
2022/09/25 10:13:12;;;;;;;3.50;3.13;;;;;;;;;;5037988;28;20626;-65
2022/09/25 10:15:43;;;;;;;3.30;3.00;;;;;;;;;;5038523;28;20323;-64
2022/09/25 10:18:11;;;;;;;3.40;3.10;;;;;;;;;;5038294;28;20233;-65
2022/09/25 10:20:42;;;;;;;3.33;3.03;;;;;;;;;;5038673;28;20305;-65
2022/09/25 10:23:18;;;;;;;3.13;2.83;;;;;;;;;;5038325;28;20201;-65
2022/09/25 10:25:45;;;;;;;3.63;2.72;;;;;;;;;;5039176;28;20525;-65
2022/09/25 10:28:22;;;;;;;3.22;2.92;;;;;;;;;;5037560;28;20202;-65
2022/09/25 10:30:51;;;;;;;3.58;3.10;;;;;;;;;;5038733;28;20210;-64
2022/09/25 10:33:22;;;;;;;3.20;3.00;;;;;;;;;;5037955;28;20315;-64
2022/09/25 10:35:53;;;;;;;3.45;3.15;;;;;;;;;;5038197;28;20248;-64
2022/09/25 10:38:29;;;;;;;4.28;2.67;;;;;;;;;;5038582;28;20513;-65
2022/09/25 10:40:59;;;;;;;3.00;2.80;;;;;;;;;;5038650;28;20213;-64
2022/09/25 10:43:27;;;;;;;3.10;2.85;;;;;;;;;;5039215;28;20268;-65
2022/09/25 10:46:06;;;;;;;2.75;2.55;;;;;;;;;;5039295;28;20285;-65
2022/09/25 10:51:21;;;;;;;3.13;2.83;;;;;;;;;;5037660;28;20193;-65
2022/09/25 10:53:48;;;;;;;3.03;2.80;;;;;;;;;;5037791;28;20213;-65
2022/09/25 10:56:19;;;;;;;3.47;2.85;;;;;;;;;;5038245;28;20210;-65
2022/09/25 10:58:49;;;;;;;3.00;2.80;;;;;;;;;;5038430;28;20258;-65
2022/09/25 11:01:18;;;;;;;3.00;2.80;;;;;;;;;;5037714;28;20206;-65
2022/09/25 11:03:47;;;;;;;3.28;3.08;;;;;;;;;;5038168;28;20231;-64
2022/09/25 11:06:20;;;;;;;2.90;2.70;;;;;;;;;;5037564;28;20264;-65
2022/09/25 11:08:50;;;;;;;3.28;2.97;;;;;;;;;;5037117;28;20237;-64
2022/09/25 11:11:25;;;;;;;3.30;3.00;;;;;;;;;;5037051;28;20264;-64
2022/09/25 11:13:54;;;;;;;3.17;2.88;;;;;;;;;;5037321;28;20578;-64
2022/09/25 11:16:42;;;;;;;2.83;2.63;;;;;;;;;;5035427;28;20260;-64
2022/09/25 11:19:13;;;;;;;3.03;2.83;;;;;;;;;;5037308;28;20296;-64
2022/09/25 11:21:43;;;;;;;3.00;2.75;;;;;;;;;;5037547;28;20198;-64
2022/09/25 11:24:14;;;;;;;2.67;2.38;;;;;;;;;;5035949;28;20258;-64
2022/09/25 11:26:44;;;;;;;3.25;2.95;;;;;;;;;;5035386;28;20229;-65
2022/09/25 11:29:15;;;;;;;3.25;2.95;;;;;;;;;;5036958;28;20210;-64
2022/09/25 11:31:48;;;;;;;2.75;2.53;;;;;;;;;;5036706;28;20201;-64
2022/09/25 11:34:20;;;;;;;2.90;2.70;;;;;;;;;;5037279;28;20287;-65
2022/09/25 11:36:49;;;;;;;3.35;3.05;;;;;;;;;;5036382;28;20221;-65
2022/09/25 11:42:08;;;;;;;3.22;2.70;;;;;;;;;;5037316;28;20192;-65
2022/09/25 11:44:38;;;;;;;2.90;2.70;;;;;;;;;;5037056;28;20322;-65
2022/09/25 11:47:14;;;;;;;2.70;2.50;;;;;;;;;;5036784;28;20289;-65
2022/09/25 11:49:42;;;;;;;2.90;2.70;;;;;;;;;;5036463;28;20594;-65
2022/09/25 11:52:31;;;;;;;2.85;2.65;;;;;;;;;;5035779;28;20609;-64
2022/09/25 11:55:16;;;;;;;2.97;2.70;;;;;;;;;;5036451;28;20613;-65
2022/09/25 11:57:49;;;;;;;2.80;2.60;;;;;;;;;;5036075;28;20597;-65
2022/09/25 12:00:19;;;;;;;2.90;2.70;;;;;;;;;;5037361;28;20205;-65
2022/09/25 12:02:56;;;;;;;3.20;2.92;;;;;;;;;;5037276;28;20206;-65
2022/09/25 12:05:31;;;;;;;2.88;2.67;;;;;;;;;;5036522;28;20240;-65
2022/09/25 12:08:11;;;;;;;2.92;2.72;;;;;;;;;;5035864;28;20255;-65
2022/09/25 12:10:45;;;;;;;2.95;2.67;;;;;;;;;;5036164;28;20198;-65
2022/09/25 12:13:17;;;;;;;3.13;2.90;;;;;;;;;;5035872;28;20319;-65
2022/09/25 12:15:50;;;;;;;3.30;3.10;;;;;;;;;;5036104;28;20201;-64
2022/09/25 12:18:24;;;;;;;2.88;2.67;;;;;;;;;;5036463;28;20288;-65
2022/09/25 12:20:53;;;;;;;2.60;2.40;;;;;;;;;;5035308;28;20236;-64
2022/09/25 12:23:24;;;;;;;2.88;2.67;;;;;;;;;;5035333;28;20202;-65
2022/09/25 12:26:01;;;;;;;3.05;2.85;;;;;;;;;;5035479;28;20241;-65
2022/09/25 12:28:32;;;;;;;3.20;3.00;;;;;;;;;;5034787;28;20194;-65
2022/09/25 12:31:06;;;;;;;2.88;2.67;;;;;;;;;;5035947;28;20801;-64
2022/09/25 12:33:39;;;;;;;3.15;2.90;;;;;;;;;;5036463;28;20308;-65
2022/09/25 12:36:09;;;;;;;2.95;2.75;;;;;;;;;;5034785;28;20237;-65
2022/09/25 12:38:40;;;;;;;2.72;2.53;;;;;;;;;;5035286;28;20293;-64
2022/09/25 12:41:10;;;;;;;3.08;2.88;;;;;;;;;;5035120;28;20287;-64
2022/09/25 12:43:41;;;;;;;2.80;2.60;;;;;;;;;;5035096;28;20332;-64
2022/09/25 12:46:13;;;;;;;2.80;2.60;;;;;;;;;;5035143;28;20204;-64
2022/09/25 12:48:44;;;;;;;3.08;2.88;;;;;;;;;;5034696;28;20256;-64
2022/09/25 12:51:15;;;;;;;3.75;2.80;;;;;;;;;;5035620;28;20974;-65
2022/09/25 12:53:46;;;;;;;2.90;2.70;;;;;;;;;;5035668;28;20655;-64
2022/09/25 12:56:15;;;;;;;2.92;2.72;;;;;;;;;;5035531;28;20312;-64
2022/09/25 12:58:50;;;;;;;3.05;2.75;;;;;;;;;;5034266;28;20293;-64
2022/09/25 13:01:20;;;;;;;3.40;2.90;;;;;;;;;;5035150;28;20209;-64
2022/09/25 13:03:51;;;;;;;3.03;2.83;;;;;;;;;;5035265;28;20209;-64
2022/09/25 13:06:23;;;;;;;3.15;2.85;;;;;;;;;;5035031;28;20245;-64
2022/09/25 13:08:53;;;;;;;3.25;2.95;;;;;;;;;;5034512;28;20241;-64
2022/09/25 13:11:28;;;;;;;3.00;2.80;;;;;;;;;;5034896;28;20259;-64
2022/09/25 13:13:56;;;;;;;2.88;2.67;;;;;;;;;;5034933;28;20197;-64
2022/09/25 13:16:24;;;;;;;3.15;2.85;;;;;;;;;;5035482;28;20216;-64
2022/09/25 13:21:44;;;;;;;3.13;2.83;;;;;;;;;;5133572;27;20558;-64
2022/09/25 13:24:14;;;;;;;3.05;2.85;;;;;;;;;;5133662;27;20229;-64
2022/09/25 13:26:46;;;;;;;2.80;2.60;;;;;;;;;;5133515;27;20241;-64
2022/09/25 13:29:22;;;;;;;3.33;3.13;;;;;;;;;;5112987;28;20301;-64
2022/09/25 13:31:52;;;;;;;3.33;3.10;;;;;;;;;;5112615;28;20304;-64
2022/09/25 13:34:21;;;;;;;3.10;2.90;;;;;;;;;;5112889;28;20210;-65
2022/09/25 13:36:51;;;;;;;3.05;2.85;;;;;;;;;;5113195;28;20203;-65
2022/09/25 13:42:06;;;;;;;3.30;3.10;;;;;;;;;;5133183;28;20258;-65
2022/09/25 13:45:01;;;;;;;3.83;3.38;;;;;;;;;;5133454;27;20251;-65
2022/09/25 13:47:53;;;;;;;3.40;3.20;;;;;;;;;;5133179;27;20237;-65
2022/09/25 13:50:28;;;;;;;3.50;3.20;;;;;;;;;;5133309;27;20210;-65
2022/09/25 13:53:17;;;;;;;3.38;3.17;;;;;;;;;;5133320;27;20488;-65
2022/09/25 13:56:04;;;;;;;3.75;3.45;;;;;;;;;;5132928;27;20202;-65
2022/09/25 13:58:32;;;;;;;3.35;3.08;;;;;;;;;;5132701;27;20247;-64
2022/09/25 14:01:01;;;;;;;3.60;3.28;;;;;;;;;;5133087;27;20776;-64
2022/09/25 14:03:30;;;;;;;3.63;3.33;;;;;;;;;;5133118;27;20594;-64
2022/09/25 14:05:58;;;;;;;3.40;3.10;;;;;;;;;;5133035;27;20202;-64
2022/09/25 14:08:29;;;;;;;3.40;3.20;;;;;;;;;;5131892;27;20490;-64
2022/09/25 14:10:58;;;;;;;3.40;3.15;;;;;;;;;;5132392;27;20648;-64
2022/09/25 14:13:26;;;;;;;3.58;3.28;;;;;;;;;;5132247;27;20620;-64
2022/09/25 14:15:55;;;;;;;3.85;3.53;;;;;;;;;;5131878;27;20233;-64
2022/09/25 14:18:25;;;;;;;3.70;3.40;;;;;;;;;;5131309;27;20194;-64
2022/09/25 14:20:59;;;;;;;3.60;3.30;;;;;;;;;;5131377;27;20277;-64
2022/09/25 14:23:29;;;;;;;3.58;3.28;;;;;;;;;;5131644;27;20198;-64
2022/09/25 14:26:00;;;;;;;3.33;3.03;;;;;;;;;;5131546;27;20230;-65
2022/09/25 14:28:29;;;;;;;3.33;3.13;;;;;;;;;;5131136;27;20702;-65
2022/09/25 14:31:08;;;;;;;3.42;3.22;;;;;;;;;;5129600;27;20501;-65
2022/09/25 14:33:51;;;;;;;4.53;3.60;;;;;;;;;;5117636;28;20214;-65
2022/09/25 14:36:22;;;;;;;3.45;3.20;;;;;;;;;;5117095;28;20301;-65
2022/09/25 14:39:07;;;;;;;3.75;3.05;;;;;;;;;;5117313;28;20234;-65
2022/09/25 14:41:45;;;;;;;3.30;3.00;;;;;;;;;;5117606;28;20226;-64
2022/09/25 14:44:22;;;;;;;3.60;3.30;;;;;;;;;;5117716;27;20613;-65
2022/09/25 14:46:50;;;;;;;3.20;2.90;;;;;;;;;;5117582;28;20202;-65
2022/09/25 14:49:23;;;;;;;3.30;3.00;;;;;;;;;;5116695;27;20253;-64
2022/09/25 14:51:51;;;;;;;3.80;3.25;;;;;;;;;;5117296;28;20203;-64
2022/09/25 14:54:21;;;;;;;3.30;3.03;;;;;;;;;;5116073;28;20239;-64
2022/09/25 14:56:50;;;;;;;3.35;3.05;;;;;;;;;;5116547;28;20213;-64
2022/09/25 14:59:20;;;;;;;3.75;3.33;;;;;;;;;;5116287;28;20647;-64
2022/09/25 15:01:49;;;;;;;3.58;3.28;;;;;;;;;;5115752;28;20229;-64
2022/09/25 15:04:26;;;;;;;3.30;3.10;;;;;;;;;;5115911;27;20268;-64
2022/09/25 15:06:59;;;;;;;3.45;3.15;;;;;;;;;;5115652;28;20477;-64
2022/09/25 15:09:35;;;;;;;3.83;3.50;;;;;;;;;;5115740;27;20234;-64
2022/09/25 15:12:14;;;;;;;3.20;2.95;;;;;;;;;;5116022;28;20202;-64
2022/09/25 15:14:57;;;;;;;3.30;3.00;;;;;;;;;;5116686;28;20213;-64
2022/09/25 15:17:24;;;;;;;3.22;3.03;;;;;;;;;;5113826;28;20234;-64
2022/09/25 15:19:53;;;;;;;3.38;3.08;;;;;;;;;;5115486;28;20658;-64
2022/09/25 15:22:22;;;;;;;3.63;3.20;;;;;;;;;;5116432;28;20773;-64
2022/09/25 15:24:53;;;;;;;4.18;3.67;;;;;;;;;;5116499;28;20203;-66
2022/09/25 15:27:21;;;;;;;3.47;3.15;;;;;;;;;;5116481;27;20195;-64
2022/09/25 15:29:49;;;;;;;3.75;3.03;;;;;;;;;;5096530;28;20210;-64
2022/09/25 15:32:18;;;;;;;3.40;3.13;;;;;;;;;;5097243;28;20192;-64
2022/09/25 15:34:46;;;;;;;3.50;3.20;;;;;;;;;;5097387;28;20281;-64
2022/09/25 15:37:21;;;;;;;3.17;2.80;;;;;;;;;;5097608;28;20307;-65
2022/09/25 15:39:48;;;;;;;3.35;3.03;;;;;;;;;;5097856;28;20281;-65
2022/09/25 15:42:17;;;;;;;3.92;3.47;;;;;;;;;;5097711;28;20223;-65
2022/09/25 15:44:45;;;;;;;3.25;3.03;;;;;;;;;;5096710;28;20245;-64
2022/09/25 15:47:46;;;;;;;3.40;3.03;;;;;;;;;;5099199;28;20253;-64
2022/09/25 15:50:18;;;;;;;3.38;3.03;;;;;;;;;;5098404;28;20298;-64
2022/09/25 15:52:49;;;;;;;3.30;3.03;;;;;;;;;;5097763;28;20235;-64
2022/09/25 15:55:17;;;;;;;3.10;2.80;;;;;;;;;;5096974;28;20507;-64
2022/09/25 15:57:47;;;;;;;3.00;2.80;;;;;;;;;;5099977;28;20195;-64
2022/09/25 16:05:53;;;;;;;3.00;2.72;;;;;;;;;;5099381;28;20195;-65
2022/09/25 16:08:28;;;;;;;4.25;2.97;;;;;;;;;;5116966;28;20195;-64
2022/09/25 16:11:04;;;;;;;3.05;2.85;;;;;;;;;;5117182;28;20202;-64
2022/09/25 16:13:34;;;;;;;3.30;2.85;;;;;;;;;;5116935;28;20551;-65
2022/09/25 16:16:01;;;;;;;2.95;2.75;;;;;;;;;;5116888;28;20199;-64
2022/09/25 16:18:38;;;;;;;2.90;2.70;;;;;;;;;;5116561;28;20199;-64
2022/09/25 16:21:14;;;;;;;3.20;2.90;;;;;;;;;;5116921;28;20713;-64
2022/09/25 16:23:42;;;;;;;3.10;2.75;;;;;;;;;;5117514;28;20807;-64
2022/09/25 16:26:15;;;;;;;2.90;2.70;;;;;;;;;;5117606;28;20272;-65
2022/09/25 16:28:48;;;;;;;3.22;2.78;;;;;;;;;;5116860;28;20226;-65
2022/09/25 16:31:21;;;;;;;3.28;2.90;;;;;;;;;;5116199;28;20199;-65
2022/09/25 16:33:50;;;;;;;2.80;2.60;;;;;;;;;;5116649;28;20314;-65
2022/09/25 16:36:18;;;;;;;3.00;2.80;;;;;;;;;;5117286;28;20577;-65
2022/09/25 16:39:05;;;;;;;3.72;2.70;;;;;;;;;;5116361;27;20206;-65
2022/09/25 16:41:34;;;;;;;3.25;2.95;;;;;;;;;;5120233;27;21517;-65
2022/09/25 16:44:13;;;;;;;2.75;2.55;;;;;;;;;;5137588;27;20202;-65
2022/09/25 16:46:40;;;;;;;3.13;2.85;;;;;;;;;;5137038;27;20240;-65
2022/09/25 16:49:07;;;;;;;2.90;2.70;;;;;;;;;;5136999;27;20285;-65
2022/09/25 16:51:37;;;;;;;2.55;2.35;;;;;;;;;;5136483;27;20576;-64
2022/09/25 16:54:05;;;;;;;2.80;2.60;;;;;;;;;;5136841;27;20304;-64
2022/09/25 16:56:33;;;;;;;2.50;2.30;;;;;;;;;;5137203;27;20285;-64
2022/09/25 16:59:01;;;;;;;2.78;2.35;;;;;;;;;;5135366;27;20198;-64
2022/09/25 17:01:30;;;;;;;2.70;2.50;;;;;;;;;;5137381;27;20666;-64
2022/09/25 17:03:58;;;;;;;2.55;2.35;;;;;;;;;;5135787;27;20270;-65
2022/09/25 17:06:29;;;;;;;2.30;2.20;;;;;;;;;;5136455;27;20245;-64
2022/09/25 17:08:59;;;;;;;2.95;2.65;;;;;;;;;;5136432;27;20492;-64
2022/09/25 17:11:26;;;;;;;2.60;2.40;;;;;;;;;;5136691;27;20226;-64
2022/09/25 17:13:54;;;;;;;2.70;2.60;;;;;;;;;;5135337;27;20197;-65
2022/09/25 17:16:22;;;;;;;2.75;2.55;;;;;;;;;;5136139;27;20194;-65
2022/09/25 17:18:51;;;;;;;2.28;2.17;;;;;;;;;;5136769;28;20236;-65
2022/09/25 17:21:19;;;;;;;2.33;2.22;;;;;;;;;;5135538;28;20269;-65
2022/09/25 17:23:48;;;;;;;2.60;2.40;;;;;;;;;;5137216;28;20213;-65
2022/09/25 17:26:16;;;;;;;2.40;2.20;;;;;;;;;;5137277;28;20288;-64
2022/09/25 17:28:44;;;;;;;2.40;2.20;;;;;;;;;;5137141;28;20297;-64
2022/09/25 17:31:13;;;;;;;2.53;2.33;;;;;;;;;;5136851;28;20230;-64
2022/09/25 17:33:40;;;;;;;2.42;2.22;;;;;;;;;;5116013;28;20282;-64
2022/09/25 17:36:11;;;;;;;2.65;2.42;;;;;;;;;;5116257;28;20213;-64
2022/09/25 17:38:39;;;;;;;2.38;2.17;;;;;;;;;;5116730;28;20202;-65
2022/09/25 17:41:07;;;;;;;2.20;2.00;;;;;;;;;;5116373;28;20219;-65
2022/09/25 17:43:35;;;;;;;2.45;2.15;;;;;;;;;;5135852;28;20268;-65
2022/09/25 17:46:05;;;;;;;2.15;2.05;;;;;;;;;;5137072;28;20586;-65
2022/09/25 17:48:32;;;;;;;2.75;2.35;;;;;;;;;;5136947;28;20202;-64
2022/09/25 17:51:01;;;;;;;2.40;2.20;;;;;;;;;;5137232;28;20198;-64
2022/09/25 17:53:31;;;;;;;2.42;2.22;;;;;;;;;;5116755;28;20525;-64
2022/09/25 17:55:59;;;;;;;2.47;2.28;;;;;;;;;;5116668;28;20210;-64
2022/09/25 17:58:27;;;;;;;2.75;2.55;;;;;;;;;;5116260;28;20200;-64
2022/09/25 18:00:54;;;;;;;2.20;2.08;;;;;;;;;;5116791;28;20238;-65
2022/09/25 18:03:22;;;;;;;2.58;2.35;;;;;;;;;;5116147;28;20222;-64
2022/09/25 18:05:49;;;;;;;3.65;2.20;;;;;;;;;;5116377;28;20203;-64
2022/09/25 18:08:17;;;;;;;2.58;2.13;;;;;;;;;;5120089;28;20543;-64
2022/09/25 18:10:46;;;;;;;2.50;2.30;;;;;;;;;;5120277;28;20195;-64
2022/09/25 18:13:16;;;;;;;2.80;2.05;;;;;;;;;;5119451;27;20199;-64
2022/09/25 18:15:47;;;;;;;2.25;2.05;;;;;;;;;;5119566;28;20719;-64
2022/09/25 18:18:14;;;;;;;2.38;2.17;;;;;;;;;;5120131;28;20306;-64
2022/09/25 18:23:27;;;;;;;2.35;2.15;;;;;;;;;;5139061;27;20208;-65
2022/09/25 18:25:56;;;;;;;2.25;2.08;;;;;;;;;;5140247;27;20213;-64
2022/09/25 18:28:24;;;;;;;2.20;2.10;;;;;;;;;;5139436;27;20267;-64
2022/09/25 18:30:51;;;;;;;2.10;2.00;;;;;;;;;;5140673;27;20641;-64
2022/09/25 18:33:21;;;;;;;2.47;2.28;;;;;;;;;;5139390;27;20225;-64
2022/09/25 18:35:49;;;;;;;2.47;2.28;;;;;;;;;;5139996;27;20241;-64
2022/09/25 18:38:16;;;;;;;2.80;2.17;;;;;;;;;;5139898;27;20287;-64
2022/09/25 18:40:44;;;;;;;2.20;2.00;;;;;;;;;;5140176;27;20268;-64
2022/09/25 18:43:14;;;;;;;2.55;2.08;;;;;;;;;;5139578;27;20241;-64
2022/09/25 18:45:43;;;;;;;1.90;1.80;;;;;;;;;;5140788;27;20209;-64
2022/09/25 18:48:11;;;;;;;2.33;2.17;;;;;;;;;;5140417;27;20309;-64
2022/09/25 18:50:40;;;;;;;2.08;1.98;;;;;;;;;;5139884;27;20202;-64
2022/09/25 18:53:07;;;;;;;1.90;1.80;;;;;;;;;;5139498;27;20226;-64
2022/09/25 18:55:35;;;;;;;2.15;1.95;;;;;;;;;;5140436;27;20544;-65
2022/09/25 18:58:02;;;;;;;2.75;2.00;;;;;;;;;;5139569;27;20300;-65
2022/09/25 19:00:31;;;;;;;2.10;2.00;;;;;;;;;;5139602;27;20217;-65
2022/09/25 19:02:59;;;;;;;2.08;1.88;;;;;;;;;;5138870;27;20637;-65
2022/09/25 19:05:27;;;;;;;2.83;2.05;;;;;;;;;;5140246;27;20297;-65
2022/09/25 19:07:55;;;;;;;2.42;2.08;;;;;;;;;;5139608;27;20209;-64
2022/09/25 19:10:23;;;;;;;2.00;1.90;;;;;;;;;;5139735;27;20194;-64
2022/09/25 19:12:50;;;;;;;2.40;2.20;;;;;;;;;;5139117;27;20205;-64
2022/09/25 19:15:18;;;;;;;2.22;2.03;;;;;;;;;;5139830;27;20278;-64
2022/09/25 19:17:47;;;;;;;1.85;1.75;;;;;;;;;;5139928;27;20268;-64
2022/09/25 19:20:16;;;;;;;2.00;1.90;;;;;;;;;;5139555;27;20246;-64
2022/09/25 19:22:44;;;;;;;2.10;1.90;;;;;;;;;;5138768;27;20222;-64
2022/09/25 19:25:12;;;;;;;1.98;1.88;;;;;;;;;;5139292;27;20611;-64
2022/09/25 19:27:39;;;;;;;1.85;1.75;;;;;;;;;;5139454;27;20234;-64
2022/09/25 19:30:07;;;;;;;1.55;1.45;;;;;;;;;;5139473;27;20252;-64
2022/09/25 19:32:34;;;;;;;1.80;1.70;;;;;;;;;;5138985;27;20515;-64
2022/09/25 19:35:03;;;;;;;1.80;1.70;;;;;;;;;;5137961;27;20262;-64
2022/09/25 19:37:31;;;;;;;1.80;1.70;;;;;;;;;;5139306;27;20306;-64
2022/09/25 19:42:44;;;;;;;1.60;1.50;;;;;;;;;;5138706;27;20225;-64
2022/09/25 19:45:12;;;;;;;1.65;1.55;;;;;;;;;;5139071;27;20521;-64
2022/09/25 19:47:40;;;;;;;1.73;1.63;;;;;;;;;;5139498;27;20238;-64
2022/09/25 19:50:11;;;;;;;1.70;1.60;;;;;;;;;;5138945;27;20286;-64
2022/09/25 19:52:38;;;;;;;1.67;1.58;;;;;;;;;;5138370;27;20248;-64
2022/09/25 19:55:06;;;;;;;1.80;1.70;;;;;;;;;;5138471;27;20252;-64
2022/09/25 19:57:33;;;;;;;1.90;1.80;;;;;;;;;;5138769;27;20212;-65
2022/09/25 20:00:01;;;;;;;1.63;1.52;;;;;;;;;;5139529;27;20285;-64
2022/09/25 20:02:29;;;;;;;1.58;1.48;;;;;;;;;;5138272;27;20248;-64
2022/09/25 20:04:56;;;;;;;1.80;1.70;;;;;;;;;;5138595;27;20202;-64
2022/09/25 20:07:25;;;;;;;1.65;1.50;;;;;;;;;;5139047;27;20306;-65
2022/09/25 20:09:52;;;;;;;1.50;1.40;;;;;;;;;;5139310;27;20210;-64
2022/09/25 20:12:20;;;;;;;1.95;1.60;;;;;;;;;;5137915;27;20286;-64
2022/09/25 20:14:48;;;;;;;1.70;1.60;;;;;;;;;;5138925;27;20229;-64
2022/09/25 20:17:16;;;;;;;1.50;1.40;;;;;;;;;;5139048;27;20310;-64
2022/09/25 20:19:44;;;;;;;1.75;1.63;;;;;;;;;;5135082;27;20262;-64
2022/09/25 20:22:12;;;;;;;1.88;1.77;;;;;;;;;;5118148;28;20567;-64
2022/09/25 20:24:45;;;;;;;1.73;1.63;;;;;;;;;;5117517;28;20249;-64
2022/09/25 20:27:13;;;;;;;1.63;1.52;;;;;;;;;;5117978;28;20203;-65
2022/09/25 20:29:41;;;;;;;1.58;1.48;;;;;;;;;;5117591;28;20722;-64
2022/09/25 20:32:08;;;;;;;1.70;1.60;;;;;;;;;;5117764;28;20278;-64
2022/09/25 20:34:35;;;;;;;1.38;1.30;;;;;;;;;;5118068;28;20662;-65
2022/09/25 20:37:03;;;;;;;1.80;1.70;;;;;;;;;;5118390;28;20276;-64
2022/09/25 20:39:31;;;;;;;1.40;1.30;;;;;;;;;;5117617;28;20294;-64
2022/09/25 20:41:59;;;;;;;1.58;1.48;;;;;;;;;;5117166;28;20257;-64
2022/09/25 20:44:27;;;;;;;1.63;1.52;;;;;;;;;;5117909;28;20234;-64
2022/09/25 20:46:54;;;;;;;1.60;1.50;;;;;;;;;;5118736;28;20302;-65
2022/09/25 20:49:22;;;;;;;1.73;1.63;;;;;;;;;;5117900;28;20250;-66
2022/09/25 20:51:49;;;;;;;1.58;1.48;;;;;;;;;;5117905;28;20238;-64
2022/09/25 20:54:17;;;;;;;2.20;1.40;;;;;;;;;;5118036;28;20284;-64
2022/09/25 20:56:44;;;;;;;1.70;1.60;;;;;;;;;;5117801;28;20298;-65
2022/09/25 20:59:14;;;;;;;1.70;1.60;;;;;;;;;;5118333;28;20289;-64
2022/09/25 21:01:41;;;;;;;1.60;1.50;;;;;;;;;;5118176;28;20597;-65
2022/09/25 21:04:09;;;;;;;1.60;1.50;;;;;;;;;;5117889;28;20294;-65
2022/09/25 21:06:38;;;;;;;1.60;1.30;;;;;;;;;;5117753;28;20214;-65
2022/09/25 21:09:07;;;;;;;2.15;1.27;;;;;;;;;;5118229;28;20203;-65
2022/09/25 21:11:36;;;;;;;2.00;1.50;;;;;;;;;;5117034;28;20199;-64
2022/09/25 21:14:04;;;;;;;1.42;1.30;;;;;;;;;;5117073;28;20209;-64
2022/09/25 21:16:34;;;;;;;1.65;1.55;;;;;;;;;;5117614;28;20203;-65
2022/09/25 21:19:02;;;;;;;1.70;1.60;;;;;;;;;;5117386;28;20234;-64
2022/09/25 21:21:30;;;;;;;1.60;1.50;;;;;;;;;;5117009;28;20222;-65
2022/09/25 21:24:00;;;;;;;1.40;1.30;;;;;;;;;;5117174;28;20219;-66
2022/09/25 21:26:29;;;;;;;1.50;1.40;;;;;;;;;;5117324;28;20203;-64
2022/09/25 21:28:57;;;;;;;2.10;1.45;;;;;;;;;;5117266;28;20203;-65
2022/09/25 21:31:25;;;;;;;1.60;1.50;;;;;;;;;;5116947;28;20199;-65
2022/09/25 21:33:55;;;;;;;1.60;1.50;;;;;;;;;;5117042;28;20238;-64
2022/09/25 21:36:24;;;;;;;1.73;1.63;;;;;;;;;;5117294;28;20217;-64
2022/09/25 21:38:52;;;;;;;1.60;1.50;;;;;;;;;;5117372;28;20203;-64
2022/09/25 21:41:20;;;;;;;1.42;1.33;;;;;;;;;;5117646;28;20203;-64
2022/09/25 21:43:49;;;;;;;1.70;1.60;;;;;;;;;;5121716;28;20627;-64
2022/09/25 21:46:17;;;;;;;1.80;1.70;;;;;;;;;;5121155;28;20601;-64
2022/09/25 21:48:48;;;;;;;2.65;1.52;;;;;;;;;;5121517;28;20207;-64
2022/09/25 21:51:18;;;;;;;1.40;1.30;;;;;;;;;;5121496;28;20221;-64
2022/09/25 21:53:45;;;;;;;1.77;1.42;;;;;;;;;;5121973;28;20199;-64
2022/09/25 21:56:15;;;;;;;1.50;1.40;;;;;;;;;;5121292;28;20199;-64